createdAt,value
2022-09-23T00:01:12.886Z,0.00
2022-09-23T00:06:14.102Z,0.00
2022-09-23T00:11:15.268Z,0.00
2022-09-23T00:16:16.500Z,0.00
2022-09-23T00:21:17.670Z,0.00
2022-09-23T00:26:18.896Z,0.00
2022-09-23T00:31:20.355Z,0.00
2022-09-23T00:36:19.618Z,0.00
2022-09-23T00:41:20.727Z,0.00
2022-09-23T00:46:22.475Z,0.00
2022-09-23T00:51:22.723Z,0.00
2022-09-23T00:56:21.811Z,0.00
2022-09-23T01:01:23.043Z,0.00
2022-09-23T01:06:24.122Z,0.00
2022-09-23T01:11:25.322Z,0.00
2022-09-23T01:16:26.519Z,0.00
2022-09-23T01:21:27.665Z,0.00
2022-09-23T01:26:28.837Z,0.00
2022-09-23T01:31:30.028Z,0.00
2022-09-23T01:36:31.218Z,0.00
2022-09-23T01:41:31.389Z,0.00
2022-09-23T01:46:32.549Z,0.00
2022-09-23T01:51:33.671Z,0.00
2022-09-23T01:56:34.821Z,0.00
2022-09-23T02:01:36.110Z,0.00
2022-09-23T02:06:37.185Z,0.00
2022-09-23T02:11:38.369Z,0.00
2022-09-23T02:16:39.572Z,0.00
2022-09-23T02:21:40.782Z,0.00
2022-09-23T02:26:41.933Z,0.00
2022-09-23T02:31:43.576Z,0.00
2022-09-23T02:36:43.719Z,0.00
2022-09-23T02:41:43.368Z,0.00
2022-09-23T02:46:42.539Z,0.00
2022-09-23T02:51:43.733Z,0.00
2022-09-23T02:56:44.887Z,0.00
2022-09-23T03:01:46.979Z,0.00
2022-09-23T03:06:47.070Z,0.00
2022-09-23T03:11:46.265Z,0.00
2022-09-23T03:16:48.407Z,0.00
2022-09-23T03:21:47.596Z,0.00
2022-09-23T03:26:48.716Z,0.00
2022-09-23T03:31:50.479Z,0.00
2022-09-23T03:36:49.643Z,0.00
2022-09-23T03:41:50.888Z,0.00
2022-09-23T03:46:52.148Z,0.00
2022-09-23T03:51:53.332Z,0.00
2022-09-23T03:56:54.503Z,0.00
2022-09-23T04:01:55.845Z,0.00
2022-09-23T04:06:56.995Z,0.00
2022-09-23T04:11:58.245Z,0.00
2022-09-23T04:17:00.445Z,0.00
2022-09-23T04:21:59.611Z,0.00
2022-09-23T04:27:01.819Z,0.00
2022-09-23T04:32:00.035Z,0.00
2022-09-23T04:37:01.235Z,0.00
2022-09-23T04:42:03.312Z,4.00
2022-09-23T04:47:02.512Z,8.00
2022-09-23T04:52:03.696Z,20.00
2022-09-23T04:57:04.888Z,48.00
2022-09-23T05:02:06.186Z,100.00
2022-09-23T05:07:07.282Z,184.00
2022-09-23T05:12:08.448Z,300.00
2022-09-23T05:17:09.772Z,444.00
2022-09-23T05:22:11.946Z,612.00
2022-09-23T05:27:11.128Z,788.00
2022-09-23T05:32:12.360Z,956.00
2022-09-23T05:37:13.548Z,1116.00
2022-09-23T05:42:14.639Z,1272.00
2022-09-23T05:47:15.842Z,1412.00
2022-09-23T05:52:17.005Z,1552.00
2022-09-23T05:57:18.171Z,1656.00
2022-09-23T06:02:19.423Z,1792.00
2022-09-23T06:07:21.517Z,1928.00
2022-09-23T06:12:20.601Z,2448.00
2022-09-23T06:17:21.764Z,2684.00
2022-09-23T06:22:22.927Z,2772.00
2022-09-23T06:27:24.022Z,3028.00
2022-09-23T06:32:27.262Z,3196.00
2022-09-23T06:37:26.423Z,3344.00
2022-09-23T06:42:28.518Z,3320.00
2022-09-23T06:47:27.725Z,3356.00
2022-09-23T06:52:28.933Z,3524.00
2022-09-23T06:57:30.272Z,3604.00
2022-09-23T07:02:31.646Z,3708.00
2022-09-23T07:07:30.969Z,3792.00
2022-09-23T07:12:32.239Z,3644.00
2022-09-23T07:17:34.323Z,4036.00
2022-09-23T07:22:33.454Z,4148.00
2022-09-23T07:27:34.627Z,4244.00
2022-09-23T07:32:45.394Z,4308.00
2022-09-23T07:37:35.847Z,4184.00
2022-09-23T07:42:37.176Z,4268.00
2022-09-23T07:47:39.331Z,4452.00
2022-09-23T07:52:38.738Z,4492.00
2022-09-23T07:57:40.830Z,4528.00
2022-09-23T08:02:38.941Z,4648.00
2022-09-23T08:07:40.037Z,4736.00
2022-09-23T08:12:41.133Z,4820.00
2022-09-23T08:17:42.218Z,4836.00
2022-09-23T08:22:47.296Z,4808.00
2022-09-23T08:27:44.377Z,5036.00
2022-09-23T08:32:46.479Z,5016.00
2022-09-23T08:37:46.722Z,4540.00
2022-09-23T08:42:45.962Z,4916.00
2022-09-23T08:47:48.076Z,5032.00
2022-09-23T08:52:48.173Z,5448.00
2022-09-23T08:58:02.389Z,5660.00
2022-09-23T09:02:47.314Z,5928.00
2022-09-23T09:07:48.549Z,6052.00
2022-09-23T09:12:49.760Z,6020.00
2022-09-23T09:17:52.024Z,6372.00
2022-09-23T09:22:51.127Z,6416.00
2022-09-23T09:27:56.317Z,6584.00
2022-09-23T09:32:55.429Z,7256.00
2022-09-23T09:37:55.569Z,7284.00
2022-09-23T09:42:55.993Z,7668.00
2022-09-23T09:47:55.354Z,7716.00
2022-09-23T09:52:56.500Z,7996.00
2022-09-23T09:57:57.850Z,8056.00
2022-09-23T10:02:59.078Z,7888.00
2022-09-23T10:08:00.481Z,7796.00
2022-09-23T10:13:03.578Z,7776.00
2022-09-23T10:18:02.822Z,7868.00
2022-09-23T10:23:04.109Z,7924.00
2022-09-23T10:28:08.019Z,7828.00
2022-09-23T10:33:05.418Z,7824.00
2022-09-23T10:38:06.627Z,7900.00
2022-09-23T10:43:08.741Z,8008.00
2022-09-23T10:48:08.313Z,8088.00
2022-09-23T10:53:07.597Z,7968.00
2022-09-23T10:58:08.955Z,7896.00
2022-09-23T11:03:11.063Z,7980.00
2022-09-23T11:08:10.338Z,8440.00
2022-09-23T11:13:11.664Z,8372.00
2022-09-23T11:18:12.976Z,8300.00
2022-09-23T11:23:14.131Z,7608.00
2022-09-23T11:28:15.287Z,7828.00
2022-09-23T11:33:16.434Z,7432.00
2022-09-23T11:38:17.717Z,7380.00
2022-09-23T11:43:20.827Z,7504.00
2022-09-23T11:48:19.935Z,7508.00
2022-09-23T11:53:21.216Z,7544.00
2022-09-23T11:58:25.922Z,7420.00
2022-09-23T12:03:32.122Z,7188.00
2022-09-23T12:08:23.155Z,7016.00
2022-09-23T12:13:24.414Z,6908.00
2022-09-23T12:18:25.500Z,6884.00
2022-09-23T12:23:27.624Z,6652.00
2022-09-23T12:28:26.725Z,6760.00
2022-09-23T12:33:27.844Z,6692.00
2022-09-23T12:38:28.987Z,6344.00
2022-09-23T12:43:30.171Z,6420.00
2022-09-23T12:48:31.507Z,6440.00
2022-09-23T12:53:32.611Z,6192.00
2022-09-23T12:58:33.743Z,5764.00
2022-09-23T13:03:35.140Z,5412.00
2022-09-23T13:08:36.443Z,5812.00
2022-09-23T13:13:37.551Z,5804.00
2022-09-23T13:18:38.664Z,5792.00
2022-09-23T13:23:39.894Z,5920.00
2022-09-23T13:28:41.011Z,5748.00
2022-09-23T13:33:42.090Z,5560.00
2022-09-23T13:38:43.363Z,5556.00
2022-09-23T13:43:44.607Z,5988.00
2022-09-23T13:48:45.806Z,5916.00
2022-09-23T13:53:47.923Z,5712.00
2022-09-23T13:58:47.167Z,5796.00
2022-09-23T14:03:48.381Z,5756.00
2022-09-23T14:08:49.609Z,5680.00
2022-09-23T14:13:51.718Z,5712.00
2022-09-23T14:18:51.065Z,5748.00
2022-09-23T14:23:53.168Z,5552.00
2022-09-23T14:28:53.353Z,5212.00
2022-09-23T14:33:52.575Z,5388.00
2022-09-23T14:38:54.673Z,5844.00
2022-09-23T14:43:54.789Z,5036.00
2022-09-23T14:48:53.880Z,4420.00
2022-09-23T14:53:54.998Z,4172.00
2022-09-23T14:58:56.104Z,4064.00
2022-09-23T15:03:57.311Z,3868.00
2022-09-23T15:08:58.422Z,3928.00
2022-09-23T15:14:14.068Z,4312.00
2022-09-23T15:19:00.086Z,4164.00
2022-09-23T15:23:59.423Z,3740.00
2022-09-23T15:29:00.517Z,3636.00
2022-09-23T15:34:01.876Z,3972.00
2022-09-23T15:39:03.132Z,4428.00
2022-09-23T15:44:04.224Z,3656.00
2022-09-23T15:49:05.480Z,3012.00
2022-09-23T15:54:06.612Z,3092.00
2022-09-23T15:59:06.765Z,2644.00
2022-09-23T16:04:08.853Z,2296.00
2022-09-23T16:09:08.970Z,2084.00
2022-09-23T16:14:09.072Z,1908.00
2022-09-23T16:19:09.178Z,1612.00
2022-09-23T16:24:08.312Z,1420.00
2022-09-23T16:29:11.344Z,1276.00
2022-09-23T16:34:14.356Z,1152.00
2022-09-23T16:39:11.535Z,1028.00
2022-09-23T16:44:12.716Z,884.00
2022-09-23T16:49:14.867Z,720.00
2022-09-23T16:54:13.970Z,552.00
2022-09-23T16:59:16.115Z,404.00
2022-09-23T17:04:15.302Z,280.00
2022-09-23T17:09:16.431Z,180.00
2022-09-23T17:14:18.528Z,112.00
2022-09-23T17:19:18.633Z,68.00
2022-09-23T17:24:19.749Z,40.00
2022-09-23T17:29:18.875Z,16.00
2022-09-23T17:34:20.964Z,8.00
2022-09-23T17:39:20.060Z,4.00
2022-09-23T17:44:22.159Z,4.00
2022-09-23T17:49:23.264Z,0.00
2022-09-23T17:54:22.466Z,0.00
2022-09-23T17:59:23.574Z,0.00
2022-09-23T18:04:24.678Z,0.00
2022-09-23T18:09:27.772Z,0.00
2022-09-23T18:14:26.864Z,0.00
2022-09-23T18:19:28.955Z,0.00
2022-09-23T18:24:32.709Z,0.00
2022-09-23T18:29:29.002Z,0.00
2022-09-23T18:34:28.099Z,0.00
2022-09-23T18:39:29.300Z,0.00
2022-09-23T18:44:30.430Z,0.00
2022-09-23T18:49:31.633Z,0.00
2022-09-23T18:54:33.718Z,0.00
2022-09-23T18:59:34.149Z,0.00
2022-09-23T19:04:33.334Z,0.00
2022-09-23T19:09:34.630Z,0.00
2022-09-23T19:14:36.720Z,0.00
2022-09-23T19:19:36.864Z,0.00
2022-09-23T19:24:36.907Z,0.00
2022-09-23T19:29:36.185Z,0.00
2022-09-23T19:34:37.528Z,0.00
2022-09-23T19:39:38.778Z,0.00
2022-09-23T19:44:40.890Z,0.00
2022-09-23T19:49:39.988Z,0.00
2022-09-23T19:54:41.206Z,0.00
2022-09-23T19:59:42.390Z,0.00
2022-09-23T20:04:47.760Z,0.00
2022-09-23T20:09:44.850Z,0.00
2022-09-23T20:14:46.051Z,0.00
2022-09-23T20:19:47.136Z,0.00
2022-09-23T20:24:48.260Z,0.00
2022-09-23T20:29:50.453Z,0.00
2022-09-23T20:34:49.539Z,0.00
2022-09-23T20:39:50.782Z,0.00
2022-09-23T20:44:51.897Z,0.00
2022-09-23T20:49:53.048Z,0.00
2022-09-23T20:54:54.275Z,0.00
2022-09-23T20:59:55.462Z,0.00
2022-09-23T21:04:56.803Z,0.00
2022-09-23T21:09:58.919Z,0.00
2022-09-23T21:14:59.030Z,0.00
2022-09-23T21:19:58.169Z,0.00
2022-09-23T21:30:00.255Z,0.00
2022-09-23T21:34:59.559Z,0.00
2022-09-23T21:39:59.646Z,0.00
2022-09-23T21:45:00.761Z,0.00
2022-09-23T21:50:02.929Z,0.00
2022-09-23T21:55:02.029Z,0.00
2022-09-23T22:00:03.345Z,0.00
2022-09-23T22:05:05.511Z,0.00
2022-09-23T22:10:05.638Z,0.00
2022-09-23T22:15:04.756Z,0.00
2022-09-23T22:20:05.949Z,0.00
2022-09-23T22:25:07.057Z,0.00
2022-09-23T22:30:08.174Z,0.00
2022-09-23T22:35:09.274Z,0.00
2022-09-23T22:40:10.712Z,0.00
2022-09-23T22:45:11.849Z,0.00
2022-09-23T22:50:13.132Z,0.00
2022-09-23T22:55:14.235Z,0.00
2022-09-23T23:00:16.372Z,0.00
2022-09-23T23:05:16.496Z,0.00
2022-09-23T23:10:15.768Z,0.00
2022-09-23T23:15:16.893Z,0.00
2022-09-23T23:20:18.005Z,0.00
2022-09-23T23:25:19.437Z,0.00
2022-09-23T23:30:19.883Z,0.00
2022-09-23T23:35:21.154Z,0.00
2022-09-23T23:40:22.464Z,0.00
2022-09-23T23:45:23.727Z,0.00
2022-09-23T23:50:24.954Z,0.00
2022-09-23T23:55:26.034Z,0.00
